sensor_id;sensor_type;location;lat;lon;timestamp;pressure;altitude;pressure_sealevel;temperature;humidity
75551;BME280;65071;53.082;18.218;2023-12-20T00:00:09;100371.86;;;7.01;96.47
75551;BME280;65071;53.082;18.218;2023-12-20T00:02:56;100375.67;;;7.03;96.36
75551;BME280;65071;53.082;18.218;2023-12-20T00:05:22;100366.34;;;7.03;96.31
75551;BME280;65071;53.082;18.218;2023-12-20T00:07:49;100369.08;;;7.03;96.38
75551;BME280;65071;53.082;18.218;2023-12-20T00:10:16;100367.52;;;7.02;96.82
75551;BME280;65071;53.082;18.218;2023-12-20T00:12:42;100368.30;;;7.03;96.54
75551;BME280;65071;53.082;18.218;2023-12-20T00:15:09;100367.86;;;7.04;96.81
75551;BME280;65071;53.082;18.218;2023-12-20T00:17:35;100365.20;;;7.04;96.49
75551;BME280;65071;53.082;18.218;2023-12-20T00:20:02;100370.66;;;7.05;96.52
75551;BME280;65071;53.082;18.218;2023-12-20T00:22:28;100366.86;;;7.05;96.74
75551;BME280;65071;53.082;18.218;2023-12-20T00:27:22;100370.98;;;7.05;96.72
75551;BME280;65071;53.082;18.218;2023-12-20T00:29:49;100369.42;;;7.07;96.77
75551;BME280;65071;53.082;18.218;2023-12-20T00:32:16;100363.20;;;7.08;96.85
75551;BME280;65071;53.082;18.218;2023-12-20T00:34:43;100361.31;;;7.09;96.68
75551;BME280;65071;53.082;18.218;2023-12-20T00:37:09;100356.34;;;7.09;96.60
75551;BME280;65071;53.082;18.218;2023-12-20T00:39:35;100352.67;;;7.10;96.55
75551;BME280;65071;53.082;18.218;2023-12-20T00:42:02;100350.06;;;7.11;96.73
75551;BME280;65071;53.082;18.218;2023-12-20T00:44:28;100348.70;;;7.10;96.72
75551;BME280;65071;53.082;18.218;2023-12-20T00:46:55;100342.63;;;7.10;96.84
75551;BME280;65071;53.082;18.218;2023-12-20T00:49:21;100341.97;;;7.11;96.61
75551;BME280;65071;53.082;18.218;2023-12-20T00:51:47;100345.53;;;7.11;96.63
75551;BME280;65071;53.082;18.218;2023-12-20T00:54:16;100347.94;;;7.11;96.83
75551;BME280;65071;53.082;18.218;2023-12-20T00:56:43;100346.71;;;7.12;96.86
75551;BME280;65071;53.082;18.218;2023-12-20T00:59:09;100347.12;;;7.13;96.75
75551;BME280;65071;53.082;18.218;2023-12-20T01:01:35;100344.01;;;7.14;96.32
75551;BME280;65071;53.082;18.218;2023-12-20T01:04:01;100341.89;;;7.14;96.54
75551;BME280;65071;53.082;18.218;2023-12-20T01:06:27;100342.78;;;7.14;96.44
75551;BME280;65071;53.082;18.218;2023-12-20T01:08:54;100340.42;;;7.14;96.47
75551;BME280;65071;53.082;18.218;2023-12-20T01:11:20;100341.39;;;7.14;96.42
75551;BME280;65071;53.082;18.218;2023-12-20T01:13:47;100337.93;;;7.14;96.58
75551;BME280;65071;53.082;18.218;2023-12-20T01:16:13;100335.11;;;7.16;96.63
75551;BME280;65071;53.082;18.218;2023-12-20T01:18:40;100330.36;;;7.17;96.38
75551;BME280;65071;53.082;18.218;2023-12-20T01:21:06;100326.02;;;7.17;96.43
75551;BME280;65071;53.082;18.218;2023-12-20T01:23:32;100325.48;;;7.17;96.52
75551;BME280;65071;53.082;18.218;2023-12-20T01:25:59;100322.24;;;7.18;96.37
75551;BME280;65071;53.082;18.218;2023-12-20T01:28:29;100324.11;;;7.18;96.39
75551;BME280;65071;53.082;18.218;2023-12-20T01:30:55;100320.38;;;7.18;96.41
75551;BME280;65071;53.082;18.218;2023-12-20T01:33:21;100318.16;;;7.19;96.25
75551;BME280;65071;53.082;18.218;2023-12-20T01:35:48;100313.25;;;7.18;96.43
75551;BME280;65071;53.082;18.218;2023-12-20T01:38:14;100309.92;;;7.17;96.67
75551;BME280;65071;53.082;18.218;2023-12-20T01:40:40;100305.10;;;7.17;96.52
75551;BME280;65071;53.082;18.218;2023-12-20T01:43:08;100304.43;;;7.17;96.57
75551;BME280;65071;53.082;18.218;2023-12-20T01:45:35;100300.30;;;7.17;96.46
75551;BME280;65071;53.082;18.218;2023-12-20T01:48:02;100296.02;;;7.17;96.79
75551;BME280;65071;53.082;18.218;2023-12-20T01:50:31;100294.80;;;7.16;96.60
75551;BME280;65071;53.082;18.218;2023-12-20T01:53:00;100294.18;;;7.15;96.80
75551;BME280;65071;53.082;18.218;2023-12-20T01:55:29;100296.51;;;7.16;96.69
75551;BME280;65071;53.082;18.218;2023-12-20T01:57:57;100299.02;;;7.15;96.87
75551;BME280;65071;53.082;18.218;2023-12-20T02:00:25;100299.73;;;7.15;96.88
75551;BME280;65071;53.082;18.218;2023-12-20T02:02:53;100287.90;;;7.16;96.87
75551;BME280;65071;53.082;18.218;2023-12-20T02:05:21;100286.09;;;7.16;96.75
75551;BME280;65071;53.082;18.218;2023-12-20T02:07:48;100288.36;;;7.16;96.97
75551;BME280;65071;53.082;18.218;2023-12-20T02:10:15;100286.97;;;7.16;96.82
75551;BME280;65071;53.082;18.218;2023-12-20T02:12:41;100289.73;;;7.15;97.00
75551;BME280;65071;53.082;18.218;2023-12-20T02:15:08;100287.10;;;7.14;96.78
75551;BME280;65071;53.082;18.218;2023-12-20T02:20:02;100282.25;;;7.15;96.56
75551;BME280;65071;53.082;18.218;2023-12-20T02:22:29;100276.48;;;7.15;96.70
75551;BME280;65071;53.082;18.218;2023-12-20T02:24:55;100273.39;;;7.14;97.08
75551;BME280;65071;53.082;18.218;2023-12-20T02:27:22;100270.35;;;7.14;96.92
75551;BME280;65071;53.082;18.218;2023-12-20T02:29:50;100272.30;;;7.14;96.84
75551;BME280;65071;53.082;18.218;2023-12-20T02:32:17;100269.66;;;7.14;97.03
75551;BME280;65071;53.082;18.218;2023-12-20T02:34:45;100266.38;;;7.14;96.89
75551;BME280;65071;53.082;18.218;2023-12-20T02:37:12;100268.50;;;7.15;97.41
75551;BME280;65071;53.082;18.218;2023-12-20T02:39:38;100263.77;;;7.15;96.97
75551;BME280;65071;53.082;18.218;2023-12-20T02:42:04;100264.85;;;7.17;96.96
75551;BME280;65071;53.082;18.218;2023-12-20T02:44:31;100262.77;;;7.19;96.70
75551;BME280;65071;53.082;18.218;2023-12-20T02:46:57;100264.20;;;7.19;96.99
75551;BME280;65071;53.082;18.218;2023-12-20T02:49:23;100264.88;;;7.19;96.71
75551;BME280;65071;53.082;18.218;2023-12-20T02:51:49;100262.94;;;7.19;96.69
75551;BME280;65071;53.082;18.218;2023-12-20T02:54:16;100261.44;;;7.18;96.92
75551;BME280;65071;53.082;18.218;2023-12-20T02:56:42;100258.70;;;7.18;97.20
75551;BME280;65071;53.082;18.218;2023-12-20T02:59:09;100263.04;;;7.17;97.18
75551;BME280;65071;53.082;18.218;2023-12-20T03:01:35;100262.70;;;7.17;97.23
75551;BME280;65071;53.082;18.218;2023-12-20T03:04:07;100263.77;;;7.17;97.27
75551;BME280;65071;53.082;18.218;2023-12-20T03:06:33;100260.94;;;7.17;97.34
75551;BME280;65071;53.082;18.218;2023-12-20T03:09:00;100256.33;;;7.17;97.17
75551;BME280;65071;53.082;18.218;2023-12-20T03:11:27;100253.62;;;7.17;97.26
75551;BME280;65071;53.082;18.218;2023-12-20T03:13:55;100254.66;;;7.17;97.30
75551;BME280;65071;53.082;18.218;2023-12-20T03:16:22;100248.19;;;7.18;97.16
75551;BME280;65071;53.082;18.218;2023-12-20T03:18:48;100245.55;;;7.17;96.97
75551;BME280;65071;53.082;18.218;2023-12-20T03:21:15;100247.09;;;7.16;97.12
75551;BME280;65071;53.082;18.218;2023-12-20T03:23:42;100248.67;;;7.16;96.96
75551;BME280;65071;53.082;18.218;2023-12-20T03:26:08;100248.16;;;7.16;96.98
75551;BME280;65071;53.082;18.218;2023-12-20T03:28:36;100248.84;;;7.16;96.97
75551;BME280;65071;53.082;18.218;2023-12-20T03:31:03;100244.63;;;7.16;96.89
75551;BME280;65071;53.082;18.218;2023-12-20T03:33:29;100249.20;;;7.16;97.08
75551;BME280;65071;53.082;18.218;2023-12-20T03:35:56;100247.17;;;7.17;96.92
75551;BME280;65071;53.082;18.218;2023-12-20T03:38:22;100250.17;;;7.18;96.79
75551;BME280;65071;53.082;18.218;2023-12-20T03:40:52;100246.42;;;7.18;96.74
75551;BME280;65071;53.082;18.218;2023-12-20T03:43:18;100246.20;;;7.16;96.98
75551;BME280;65071;53.082;18.218;2023-12-20T03:45:44;100243.14;;;7.16;97.04
75551;BME280;65071;53.082;18.218;2023-12-20T03:48:12;100241.55;;;7.18;96.80
75551;BME280;65071;53.082;18.218;2023-12-20T03:50:38;100244.80;;;7.17;96.74
75551;BME280;65071;53.082;18.218;2023-12-20T03:53:04;100244.84;;;7.17;96.66
75551;BME280;65071;53.082;18.218;2023-12-20T03:55:30;100248.02;;;7.17;96.64
75551;BME280;65071;53.082;18.218;2023-12-20T03:57:57;100244.61;;;7.18;96.78
75551;BME280;65071;53.082;18.218;2023-12-20T04:00:23;100246.22;;;7.18;96.68
75551;BME280;65071;53.082;18.218;2023-12-20T04:02:50;100242.20;;;7.18;96.57
75551;BME280;65071;53.082;18.218;2023-12-20T04:05:16;100244.73;;;7.18;96.65
75551;BME280;65071;53.082;18.218;2023-12-20T04:07:42;100247.77;;;7.18;96.61
75551;BME280;65071;53.082;18.218;2023-12-20T04:10:09;100247.96;;;7.18;96.51
75551;BME280;65071;53.082;18.218;2023-12-20T04:12:36;100246.45;;;7.17;96.44
75551;BME280;65071;53.082;18.218;2023-12-20T04:15:03;100246.83;;;7.17;96.59
75551;BME280;65071;53.082;18.218;2023-12-20T04:17:35;100245.63;;;7.16;96.30
75551;BME280;65071;53.082;18.218;2023-12-20T04:20:02;100248.02;;;7.16;96.51
75551;BME280;65071;53.082;18.218;2023-12-20T04:22:28;100244.98;;;7.16;96.27
75551;BME280;65071;53.082;18.218;2023-12-20T04:24:55;100242.82;;;7.16;96.33
75551;BME280;65071;53.082;18.218;2023-12-20T04:27:21;100243.73;;;7.16;96.28
75551;BME280;65071;53.082;18.218;2023-12-20T04:29:48;100239.79;;;7.14;96.32
75551;BME280;65071;53.082;18.218;2023-12-20T04:32:14;100240.06;;;7.13;96.47
75551;BME280;65071;53.082;18.218;2023-12-20T04:34:40;100239.79;;;7.12;96.30
75551;BME280;65071;53.082;18.218;2023-12-20T04:37:07;100243.34;;;7.12;96.30
75551;BME280;65071;53.082;18.218;2023-12-20T04:39:33;100242.69;;;7.13;96.36
75551;BME280;65071;53.082;18.218;2023-12-20T04:42:00;100241.48;;;7.13;95.86
75551;BME280;65071;53.082;18.218;2023-12-20T04:44:26;100241.70;;;7.12;95.93
75551;BME280;65071;53.082;18.218;2023-12-20T04:46:53;100240.47;;;7.12;95.93
75551;BME280;65071;53.082;18.218;2023-12-20T04:49:19;100245.23;;;7.13;95.83
75551;BME280;65071;53.082;18.218;2023-12-20T04:51:46;100248.29;;;7.13;95.80
75551;BME280;65071;53.082;18.218;2023-12-20T04:54:12;100247.50;;;7.14;96.03
75551;BME280;65071;53.082;18.218;2023-12-20T04:56:39;100247.85;;;7.14;95.75
75551;BME280;65071;53.082;18.218;2023-12-20T04:59:06;100248.30;;;7.11;95.41
75551;BME280;65071;53.082;18.218;2023-12-20T05:01:32;100245.79;;;7.09;95.35
75551;BME280;65071;53.082;18.218;2023-12-20T05:03:58;100243.12;;;7.09;95.35
75551;BME280;65071;53.082;18.218;2023-12-20T05:06:25;100247.57;;;7.08;94.89
75551;BME280;65071;53.082;18.218;2023-12-20T05:08:51;100252.14;;;7.06;94.90
75551;BME280;65071;53.082;18.218;2023-12-20T05:11:18;100253.27;;;7.04;94.81
75551;BME280;65071;53.082;18.218;2023-12-20T05:13:44;100251.56;;;7.01;94.70
75551;BME280;65071;53.082;18.218;2023-12-20T05:16:10;100246.73;;;6.99;94.84
75551;BME280;65071;53.082;18.218;2023-12-20T05:18:37;100248.53;;;6.97;94.65
75551;BME280;65071;53.082;18.218;2023-12-20T05:21:03;100249.89;;;6.96;94.79
75551;BME280;65071;53.082;18.218;2023-12-20T05:23:29;100248.22;;;6.95;94.75
75551;BME280;65071;53.082;18.218;2023-12-20T05:25:56;100245.48;;;6.93;94.84
75551;BME280;65071;53.082;18.218;2023-12-20T05:28:22;100243.81;;;6.92;94.69
75551;BME280;65071;53.082;18.218;2023-12-20T05:30:48;100248.39;;;6.91;94.69
75551;BME280;65071;53.082;18.218;2023-12-20T05:33:14;100245.46;;;6.90;94.51
75551;BME280;65071;53.082;18.218;2023-12-20T05:35:41;100245.42;;;6.88;94.62
75551;BME280;65071;53.082;18.218;2023-12-20T05:38:07;100250.11;;;6.86;94.53
75551;BME280;65071;53.082;18.218;2023-12-20T05:40:34;100251.52;;;6.84;94.67
75551;BME280;65071;53.082;18.218;2023-12-20T05:43:01;100253.16;;;6.84;94.60
75551;BME280;65071;53.082;18.218;2023-12-20T05:45:27;100257.59;;;6.83;94.35
75551;BME280;65071;53.082;18.218;2023-12-20T05:47:53;100254.89;;;6.81;94.52
75551;BME280;65071;53.082;18.218;2023-12-20T05:50:20;100244.10;;;6.80;94.59
75551;BME280;65071;53.082;18.218;2023-12-20T05:52:47;100243.98;;;6.79;94.65
75551;BME280;65071;53.082;18.218;2023-12-20T05:55:13;100246.04;;;6.78;94.43
75551;BME280;65071;53.082;18.218;2023-12-20T05:57:40;100245.03;;;6.77;94.75
75551;BME280;65071;53.082;18.218;2023-12-20T06:00:08;100254.01;;;6.77;94.70
75551;BME280;65071;53.082;18.218;2023-12-20T06:02:41;100257.45;;;6.76;94.71
75551;BME280;65071;53.082;18.218;2023-12-20T06:05:07;100254.49;;;6.76;94.56
75551;BME280;65071;53.082;18.218;2023-12-20T06:07:34;100247.41;;;6.73;94.45
75551;BME280;65071;53.082;18.218;2023-12-20T06:10:00;100244.42;;;6.71;94.51
75551;BME280;65071;53.082;18.218;2023-12-20T06:12:26;100251.05;;;6.69;94.41
75551;BME280;65071;53.082;18.218;2023-12-20T06:14:54;100244.73;;;6.65;94.45
75551;BME280;65071;53.082;18.218;2023-12-20T06:17:21;100233.91;;;6.61;94.40
75551;BME280;65071;53.082;18.218;2023-12-20T06:19:47;100237.27;;;6.57;94.36
75551;BME280;65071;53.082;18.218;2023-12-20T06:22:15;100248.58;;;6.52;94.42
75551;BME280;65071;53.082;18.218;2023-12-20T06:24:41;100247.71;;;6.49;94.27
75551;BME280;65071;53.082;18.218;2023-12-20T06:27:08;100249.11;;;6.45;94.45
75551;BME280;65071;53.082;18.218;2023-12-20T06:29:34;100242.84;;;6.41;94.43
75551;BME280;65071;53.082;18.218;2023-12-20T06:32:01;100238.35;;;6.37;94.26
75551;BME280;65071;53.082;18.218;2023-12-20T06:34:27;100243.59;;;6.33;94.43
75551;BME280;65071;53.082;18.218;2023-12-20T06:36:53;100242.60;;;6.28;94.23
75551;BME280;65071;53.082;18.218;2023-12-20T06:39:20;100248.88;;;6.24;94.39
75551;BME280;65071;53.082;18.218;2023-12-20T06:41:46;100260.81;;;6.20;94.26
75551;BME280;65071;53.082;18.218;2023-12-20T06:44:13;100270.50;;;6.16;94.11
75551;BME280;65071;53.082;18.218;2023-12-20T06:46:39;100272.55;;;6.11;94.26
75551;BME280;65071;53.082;18.218;2023-12-20T06:49:06;100265.64;;;6.07;94.21
75551;BME280;65071;53.082;18.218;2023-12-20T06:51:32;100260.95;;;6.03;94.17
75551;BME280;65071;53.082;18.218;2023-12-20T06:53:59;100257.02;;;6.00;94.13
75551;BME280;65071;53.082;18.218;2023-12-20T06:56:26;100258.34;;;5.95;94.21
75551;BME280;65071;53.082;18.218;2023-12-20T06:58:52;100251.99;;;5.90;94.30
75551;BME280;65071;53.082;18.218;2023-12-20T07:01:18;100250.36;;;5.86;94.25
75551;BME280;65071;53.082;18.218;2023-12-20T07:06:11;100255.66;;;5.80;94.30
75551;BME280;65071;53.082;18.218;2023-12-20T07:08:40;100260.16;;;5.78;94.31
75551;BME280;65071;53.082;18.218;2023-12-20T07:11:06;100263.88;;;5.76;94.16
75551;BME280;65071;53.082;18.218;2023-12-20T07:13:32;100269.81;;;5.73;94.08
75551;BME280;65071;53.082;18.218;2023-12-20T07:15:59;100265.45;;;5.70;94.18
75551;BME280;65071;53.082;18.218;2023-12-20T07:18:25;100267.51;;;5.69;94.28
75551;BME280;65071;53.082;18.218;2023-12-20T07:20:52;100269.04;;;5.68;94.19
75551;BME280;65071;53.082;18.218;2023-12-20T07:23:19;100266.06;;;5.68;94.24
75551;BME280;65071;53.082;18.218;2023-12-20T07:25:46;100267.66;;;5.66;94.14
75551;BME280;65071;53.082;18.218;2023-12-20T07:28:44;100273.45;;;5.65;94.15
75551;BME280;65071;53.082;18.218;2023-12-20T07:31:11;100274.24;;;5.64;94.06
75551;BME280;65071;53.082;18.218;2023-12-20T07:33:38;100275.46;;;5.62;94.17
75551;BME280;65071;53.082;18.218;2023-12-20T07:36:05;100282.26;;;5.62;94.06
75551;BME280;65071;53.082;18.218;2023-12-20T07:38:32;100287.02;;;5.61;94.00
75551;BME280;65071;53.082;18.218;2023-12-20T07:40:58;100287.65;;;5.59;94.00
75551;BME280;65071;53.082;18.218;2023-12-20T07:43:25;100286.69;;;5.58;94.09
75551;BME280;65071;53.082;18.218;2023-12-20T07:45:51;100287.38;;;5.56;93.94
75551;BME280;65071;53.082;18.218;2023-12-20T07:48:18;100285.38;;;5.55;93.86
75551;BME280;65071;53.082;18.218;2023-12-20T07:50:44;100279.52;;;5.55;93.97
75551;BME280;65071;53.082;18.218;2023-12-20T07:53:11;100278.14;;;5.54;93.99
75551;BME280;65071;53.082;18.218;2023-12-20T07:55:37;100282.19;;;5.53;94.00
75551;BME280;65071;53.082;18.218;2023-12-20T07:58:03;100284.44;;;5.53;94.06
75551;BME280;65071;53.082;18.218;2023-12-20T08:00:31;100281.15;;;5.54;94.03
75551;BME280;65071;53.082;18.218;2023-12-20T08:02:57;100284.33;;;5.55;93.98
75551;BME280;65071;53.082;18.218;2023-12-20T08:05:24;100285.80;;;5.56;94.00
75551;BME280;65071;53.082;18.218;2023-12-20T08:07:50;100287.78;;;5.56;93.85
75551;BME280;65071;53.082;18.218;2023-12-20T08:10:16;100277.66;;;5.55;93.96
75551;BME280;65071;53.082;18.218;2023-12-20T08:12:44;100273.41;;;5.55;93.78
75551;BME280;65071;53.082;18.218;2023-12-20T08:15:11;100267.95;;;5.54;93.75
75551;BME280;65071;53.082;18.218;2023-12-20T08:17:40;100266.48;;;5.57;93.71
75551;BME280;65071;53.082;18.218;2023-12-20T08:20:07;100273.50;;;5.56;93.63
75551;BME280;65071;53.082;18.218;2023-12-20T08:22:33;100272.42;;;5.58;93.74
75551;BME280;65071;53.082;18.218;2023-12-20T08:25:00;100274.92;;;5.60;93.71
75551;BME280;65071;53.082;18.218;2023-12-20T08:27:26;100271.81;;;5.61;93.66
75551;BME280;65071;53.082;18.218;2023-12-20T08:32:19;100258.39;;;5.59;93.73
75551;BME280;65071;53.082;18.218;2023-12-20T08:34:45;100257.21;;;5.61;93.72
75551;BME280;65071;53.082;18.218;2023-12-20T08:37:14;100256.41;;;5.64;93.92
75551;BME280;65071;53.082;18.218;2023-12-20T08:39:41;100255.97;;;5.66;93.86
75551;BME280;65071;53.082;18.218;2023-12-20T08:42:07;100258.05;;;5.71;93.87
75551;BME280;65071;53.082;18.218;2023-12-20T08:44:33;100265.16;;;5.90;93.82
75551;BME280;65071;53.082;18.218;2023-12-20T08:47:00;100262.52;;;6.25;93.02
75551;BME280;65071;53.082;18.218;2023-12-20T08:49:26;100261.55;;;6.26;92.65
75551;BME280;65071;53.082;18.218;2023-12-20T08:51:53;100261.13;;;6.19;92.52
75551;BME280;65071;53.082;18.218;2023-12-20T08:54:20;100261.80;;;6.12;92.07
75551;BME280;65071;53.082;18.218;2023-12-20T08:56:46;100253.22;;;6.04;92.01
75551;BME280;65071;53.082;18.218;2023-12-20T08:59:13;100251.38;;;5.99;91.99
75551;BME280;65071;53.082;18.218;2023-12-20T09:01:40;100254.66;;;5.94;92.11
75551;BME280;65071;53.082;18.218;2023-12-20T09:04:06;100258.27;;;5.90;92.14
75551;BME280;65071;53.082;18.218;2023-12-20T09:06:33;100255.02;;;5.83;91.82
75551;BME280;65071;53.082;18.218;2023-12-20T09:08:59;100251.70;;;5.78;92.16
75551;BME280;65071;53.082;18.218;2023-12-20T09:11:26;100255.81;;;5.76;92.14
75551;BME280;65071;53.082;18.218;2023-12-20T09:13:52;100251.24;;;5.75;92.33
75551;BME280;65071;53.082;18.218;2023-12-20T09:16:18;100255.27;;;5.74;92.47
75551;BME280;65071;53.082;18.218;2023-12-20T09:18:45;100247.41;;;5.75;92.46
75551;BME280;65071;53.082;18.218;2023-12-20T09:21:11;100243.81;;;5.75;92.32
75551;BME280;65071;53.082;18.218;2023-12-20T09:23:39;100247.52;;;5.77;92.31
75551;BME280;65071;53.082;18.218;2023-12-20T09:26:06;100246.52;;;5.83;92.39
75551;BME280;65071;53.082;18.218;2023-12-20T09:28:36;100236.27;;;5.86;91.78
75551;BME280;65071;53.082;18.218;2023-12-20T09:31:04;100235.27;;;5.91;91.79
75551;BME280;65071;53.082;18.218;2023-12-20T09:33:32;100232.90;;;5.98;91.67
75551;BME280;65071;53.082;18.218;2023-12-20T09:36:03;100224.40;;;6.01;91.67
75551;BME280;65071;53.082;18.218;2023-12-20T09:38:29;100222.36;;;6.08;90.93
75551;BME280;65071;53.082;18.218;2023-12-20T09:40:56;100223.20;;;6.20;90.76
75551;BME280;65071;53.082;18.218;2023-12-20T09:43:26;100221.52;;;6.32;90.66
75551;BME280;65071;53.082;18.218;2023-12-20T09:48:26;100222.85;;;6.51;89.93
75551;BME280;65071;53.082;18.218;2023-12-20T09:53:19;100212.64;;;6.80;88.96
75551;BME280;65071;53.082;18.218;2023-12-20T09:55:46;100215.90;;;6.93;88.75
75551;BME280;65071;53.082;18.218;2023-12-20T09:58:12;100216.48;;;7.01;87.61
75551;BME280;65071;53.082;18.218;2023-12-20T10:00:39;100209.64;;;7.07;86.81
75551;BME280;65071;53.082;18.218;2023-12-20T10:05:33;100198.90;;;7.00;83.56
75551;BME280;65071;53.082;18.218;2023-12-20T10:08:00;100196.06;;;6.94;83.31
75551;BME280;65071;53.082;18.218;2023-12-20T10:10:27;100194.21;;;6.93;84.00
75551;BME280;65071;53.082;18.218;2023-12-20T10:13:08;100186.06;;;6.90;84.47
75551;BME280;65071;53.082;18.218;2023-12-20T10:15:39;100180.92;;;6.88;84.41
75551;BME280;65071;53.082;18.218;2023-12-20T10:18:07;100173.13;;;6.86;84.91
75551;BME280;65071;53.082;18.218;2023-12-20T10:20:34;100175.44;;;6.86;85.54
75551;BME280;65071;53.082;18.218;2023-12-20T10:23:01;100174.19;;;6.87;84.90
75551;BME280;65071;53.082;18.218;2023-12-20T10:25:27;100177.56;;;6.95;85.45
75551;BME280;65071;53.082;18.218;2023-12-20T10:28:09;100171.77;;;7.09;85.95
75551;BME280;65071;53.082;18.218;2023-12-20T10:30:37;100165.18;;;7.23;85.04
75551;BME280;65071;53.082;18.218;2023-12-20T10:33:06;100159.29;;;7.31;82.95
75551;BME280;65071;53.082;18.218;2023-12-20T10:35:34;100152.83;;;7.37;83.11
75551;BME280;65071;53.082;18.218;2023-12-20T10:38:04;100145.11;;;7.45;83.05
75551;BME280;65071;53.082;18.218;2023-12-20T10:40:35;100137.25;;;7.50;82.95
75551;BME280;65071;53.082;18.218;2023-12-20T10:43:04;100140.20;;;7.51;82.44
75551;BME280;65071;53.082;18.218;2023-12-20T10:45:31;100139.10;;;7.51;82.59
75551;BME280;65071;53.082;18.218;2023-12-20T10:47:58;100141.60;;;7.49;82.52
75551;BME280;65071;53.082;18.218;2023-12-20T10:50:27;100137.74;;;7.48;82.34
75551;BME280;65071;53.082;18.218;2023-12-20T10:52:58;100128.05;;;7.49;81.92
75551;BME280;65071;53.082;18.218;2023-12-20T10:55:25;100120.99;;;7.50;81.88
75551;BME280;65071;53.082;18.218;2023-12-20T10:57:52;100114.84;;;7.46;81.19
75551;BME280;65071;53.082;18.218;2023-12-20T11:00:23;100118.71;;;7.42;81.20
75551;BME280;65071;53.082;18.218;2023-12-20T11:02:49;100110.69;;;7.42;81.87
75551;BME280;65071;53.082;18.218;2023-12-20T11:05:36;100106.90;;;7.42;82.27
75551;BME280;65071;53.082;18.218;2023-12-20T11:08:17;100100.89;;;7.39;81.87
75551;BME280;65071;53.082;18.218;2023-12-20T11:10:57;100089.00;;;7.27;81.46
75551;BME280;65071;53.082;18.218;2023-12-20T11:13:31;100089.48;;;7.29;82.16
75551;BME280;65071;53.082;18.218;2023-12-20T11:16:00;100080.87;;;7.28;82.42
75551;BME280;65071;53.082;18.218;2023-12-20T11:18:30;100076.83;;;7.23;81.02
75551;BME280;65071;53.082;18.218;2023-12-20T11:21:01;100072.30;;;7.17;81.31
75551;BME280;65071;53.082;18.218;2023-12-20T11:23:30;100065.73;;;7.07;81.42
75551;BME280;65071;53.082;18.218;2023-12-20T11:25:59;100065.98;;;7.03;81.82
75551;BME280;65071;53.082;18.218;2023-12-20T11:28:27;100061.35;;;6.99;81.78
75551;BME280;65071;53.082;18.218;2023-12-20T11:30:58;100058.78;;;6.96;82.24
75551;BME280;65071;53.082;18.218;2023-12-20T11:33:30;100058.60;;;6.92;82.27
75551;BME280;65071;53.082;18.218;2023-12-20T11:35:59;100058.95;;;6.91;82.78
75551;BME280;65071;53.082;18.218;2023-12-20T11:38:26;100049.05;;;6.88;82.82
75551;BME280;65071;53.082;18.218;2023-12-20T11:40:54;100047.52;;;6.87;82.53
75551;BME280;65071;53.082;18.218;2023-12-20T11:43:30;100042.05;;;6.86;82.60
75551;BME280;65071;53.082;18.218;2023-12-20T11:46:05;100035.91;;;6.83;82.69
75551;BME280;65071;53.082;18.218;2023-12-20T11:48:34;100029.21;;;6.86;82.87
75551;BME280;65071;53.082;18.218;2023-12-20T11:51:01;100022.66;;;6.87;82.56
75551;BME280;65071;53.082;18.218;2023-12-20T11:53:30;100021.30;;;6.90;82.92
75551;BME280;65071;53.082;18.218;2023-12-20T11:55:58;100012.83;;;6.93;82.55
75551;BME280;65071;53.082;18.218;2023-12-20T11:58:25;100008.48;;;6.91;82.21
75551;BME280;65071;53.082;18.218;2023-12-20T12:00:51;100006.48;;;6.92;82.43
75551;BME280;65071;53.082;18.218;2023-12-20T12:05:47;99998.08;;;6.93;82.54
75551;BME280;65071;53.082;18.218;2023-12-20T12:08:13;99992.61;;;6.93;82.82
75551;BME280;65071;53.082;18.218;2023-12-20T12:10:40;99993.99;;;6.91;83.01
75551;BME280;65071;53.082;18.218;2023-12-20T12:13:06;99988.88;;;6.87;83.25
75551;BME280;65071;53.082;18.218;2023-12-20T12:15:33;99988.52;;;6.85;83.74
75551;BME280;65071;53.082;18.218;2023-12-20T12:17:59;99983.69;;;6.82;84.28
75551;BME280;65071;53.082;18.218;2023-12-20T12:20:26;99986.15;;;6.78;84.57
75551;BME280;65071;53.082;18.218;2023-12-20T12:23:05;99986.56;;;6.74;84.95
75551;BME280;65071;53.082;18.218;2023-12-20T12:25:35;99978.20;;;6.74;85.44
75551;BME280;65071;53.082;18.218;2023-12-20T12:28:06;99974.67;;;6.74;85.27
75551;BME280;65071;53.082;18.218;2023-12-20T12:30:58;99965.22;;;6.71;85.32
75551;BME280;65071;53.082;18.218;2023-12-20T12:33:26;99961.10;;;6.69;85.56
75551;BME280;65071;53.082;18.218;2023-12-20T12:35:53;99959.19;;;6.71;85.82
75551;BME280;65071;53.082;18.218;2023-12-20T12:38:20;99948.81;;;6.65;86.14
75551;BME280;65071;53.082;18.218;2023-12-20T12:40:47;99943.78;;;6.64;86.23
75551;BME280;65071;53.082;18.218;2023-12-20T12:43:14;99941.23;;;6.59;86.34
75551;BME280;65071;53.082;18.218;2023-12-20T12:45:40;99947.04;;;6.60;86.46
75551;BME280;65071;53.082;18.218;2023-12-20T12:48:07;99939.46;;;6.57;86.39
75551;BME280;65071;53.082;18.218;2023-12-20T12:50:33;99936.34;;;6.54;86.26
75551;BME280;65071;53.082;18.218;2023-12-20T12:52:59;99938.13;;;6.54;86.22
75551;BME280;65071;53.082;18.218;2023-12-20T12:55:26;99928.88;;;6.54;86.34
75551;BME280;65071;53.082;18.218;2023-12-20T12:57:52;99926.10;;;6.51;87.07
75551;BME280;65071;53.082;18.218;2023-12-20T13:00:19;99931.46;;;6.51;86.93
75551;BME280;65071;53.082;18.218;2023-12-20T13:02:45;99927.41;;;6.50;86.97
75551;BME280;65071;53.082;18.218;2023-12-20T13:05:12;99922.73;;;6.49;87.23
75551;BME280;65071;53.082;18.218;2023-12-20T13:07:38;99921.56;;;6.48;87.63
75551;BME280;65071;53.082;18.218;2023-12-20T13:10:06;99924.89;;;6.45;88.46